sensor_id;sensor_type;location;lat;lon;timestamp;P1;durP1;ratioP1;P2;durP2;ratioP2
16430;SDS011;8325;49.284;7.238;2023-06-19T04:02:20;6.35;;;4.57;;
16430;SDS011;8325;49.284;7.238;2023-06-19T04:06:32;5.15;;;4.53;;
16430;SDS011;8325;49.284;7.238;2023-06-19T04:10:43;5.13;;;4.55;;
16430;SDS011;8325;49.284;7.238;2023-06-19T04:14:55;4.97;;;4.47;;
16430;SDS011;8325;49.284;7.238;2023-06-19T04:19:06;5.43;;;4.55;;
16430;SDS011;8325;49.284;7.238;2023-06-19T04:23:18;5.18;;;4.68;;
16430;SDS011;8325;49.284;7.238;2023-06-19T04:27:30;4.65;;;4.25;;
16430;SDS011;8325;49.284;7.238;2023-06-19T04:31:41;5.82;;;4.70;;
16430;SDS011;8325;49.284;7.238;2023-06-19T04:35:58;5.25;;;4.70;;
16430;SDS011;8325;49.284;7.238;2023-06-19T04:40:09;5.20;;;4.70;;
16430;SDS011;8325;49.284;7.238;2023-06-19T04:44:22;6.70;;;4.65;;
16430;SDS011;8325;49.284;7.238;2023-06-19T04:48:34;5.93;;;4.82;;
16430;SDS011;8325;49.284;7.238;2023-06-19T04:52:47;5.60;;;5.00;;
16430;SDS011;8325;49.284;7.238;2023-06-19T04:57:02;5.68;;;4.80;;
16430;SDS011;8325;49.284;7.238;2023-06-19T05:01:14;5.75;;;4.82;;
16430;SDS011;8325;49.284;7.238;2023-06-19T05:05:27;5.82;;;4.90;;
16430;SDS011;8325;49.284;7.238;2023-06-19T05:09:39;5.30;;;4.60;;
16430;SDS011;8325;49.284;7.238;2023-06-19T05:13:51;6.60;;;4.57;;
16430;SDS011;8325;49.284;7.238;2023-06-19T05:18:03;7.25;;;5.18;;
16430;SDS011;8325;49.284;7.238;2023-06-19T05:22:14;4.90;;;4.50;;
16430;SDS011;8325;49.284;7.238;2023-06-19T05:26:26;7.00;;;4.43;;
16430;SDS011;8325;49.284;7.238;2023-06-19T05:30:37;6.47;;;4.40;;
16430;SDS011;8325;49.284;7.238;2023-06-19T05:34:49;8.13;;;4.93;;
16430;SDS011;8325;49.284;7.238;2023-06-19T05:39:01;6.88;;;5.50;;
16430;SDS011;8325;49.284;7.238;2023-06-19T05:43:12;6.18;;;4.70;;
16430;SDS011;8325;49.284;7.238;2023-06-19T05:47:24;4.90;;;4.40;;
16430;SDS011;8325;49.284;7.238;2023-06-19T05:51:37;6.97;;;4.90;;
16430;SDS011;8325;49.284;7.238;2023-06-19T05:55:50;6.55;;;4.90;;
16430;SDS011;8325;49.284;7.238;2023-06-19T06:00:01;5.85;;;4.40;;
16430;SDS011;8325;49.284;7.238;2023-06-19T06:04:22;5.90;;;4.40;;
16430;SDS011;8325;49.284;7.238;2023-06-19T06:08:34;4.30;;;3.58;;
16430;SDS011;8325;49.284;7.238;2023-06-19T06:12:47;5.20;;;3.83;;
16430;SDS011;8325;49.284;7.238;2023-06-19T06:16:59;4.43;;;4.03;;
16430;SDS011;8325;49.284;7.238;2023-06-19T06:21:11;4.57;;;4.10;;
16430;SDS011;8325;49.284;7.238;2023-06-19T06:25:24;4.38;;;3.97;;
16430;SDS011;8325;49.284;7.238;2023-06-19T06:29:35;5.07;;;4.20;;
16430;SDS011;8325;49.284;7.238;2023-06-19T06:33:48;5.35;;;4.32;;
16430;SDS011;8325;49.284;7.238;2023-06-19T06:38:00;5.57;;;4.10;;
16430;SDS011;8325;49.284;7.238;2023-06-19T06:42:11;4.65;;;3.90;;
16430;SDS011;8325;49.284;7.238;2023-06-19T06:46:23;4.00;;;3.58;;
16430;SDS011;8325;49.284;7.238;2023-06-19T06:50:35;4.10;;;3.70;;
16430;SDS011;8325;49.284;7.238;2023-06-19T06:54:46;4.53;;;3.33;;
16430;SDS011;8325;49.284;7.238;2023-06-19T06:58:58;3.50;;;3.20;;
16430;SDS011;8325;49.284;7.238;2023-06-19T07:03:10;4.30;;;3.30;;
16430;SDS011;8325;49.284;7.238;2023-06-19T07:07:22;3.75;;;3.20;;
16430;SDS011;8325;49.284;7.238;2023-06-19T07:11:33;6.20;;;3.30;;
16430;SDS011;8325;49.284;7.238;2023-06-19T07:15:45;3.30;;;3.00;;
16430;SDS011;8325;49.284;7.238;2023-06-19T07:19:56;3.50;;;3.20;;
16430;SDS011;8325;49.284;7.238;2023-06-19T07:24:08;6.53;;;3.50;;
16430;SDS011;8325;49.284;7.238;2023-06-19T07:28:20;5.07;;;3.45;;
16430;SDS011;8325;49.284;7.238;2023-06-19T07:32:32;3.53;;;3.10;;
16430;SDS011;8325;49.284;7.238;2023-06-19T07:36:43;2.90;;;2.55;;
16430;SDS011;8325;49.284;7.238;2023-06-19T07:40:55;2.67;;;2.47;;
16430;SDS011;8325;49.284;7.238;2023-06-19T07:45:07;3.50;;;2.85;;
16430;SDS011;8325;49.284;7.238;2023-06-19T07:49:19;2.78;;;2.55;;
16430;SDS011;8325;49.284;7.238;2023-06-19T07:53:30;3.55;;;2.53;;
16430;SDS011;8325;49.284;7.238;2023-06-19T07:57:42;2.75;;;2.45;;
16430;SDS011;8325;49.284;7.238;2023-06-19T08:01:53;2.78;;;2.58;;
16430;SDS011;8325;49.284;7.238;2023-06-19T08:06:05;3.58;;;2.50;;
16430;SDS011;8325;49.284;7.238;2023-06-19T08:10:17;2.92;;;2.63;;
16430;SDS011;8325;49.284;7.238;2023-06-19T08:14:28;3.60;;;2.58;;
16430;SDS011;8325;49.284;7.238;2023-06-19T08:18:40;4.00;;;2.47;;
16430;SDS011;8325;49.284;7.238;2023-06-19T08:22:51;2.60;;;2.40;;
16430;SDS011;8325;49.284;7.238;2023-06-19T08:27:03;3.78;;;2.45;;
16430;SDS011;8325;49.284;7.238;2023-06-19T08:31:15;3.70;;;2.55;;
16430;SDS011;8325;49.284;7.238;2023-06-19T08:35:28;6.05;;;2.50;;
16430;SDS011;8325;49.284;7.238;2023-06-19T08:39:39;2.75;;;2.55;;
16430;SDS011;8325;49.284;7.238;2023-06-19T08:43:51;3.08;;;2.38;;
16430;SDS011;8325;49.284;7.238;2023-06-19T08:48:03;3.85;;;2.70;;
16430;SDS011;8325;49.284;7.238;2023-06-19T08:52:22;4.43;;;2.58;;
16430;SDS011;8325;49.284;7.238;2023-06-19T08:56:34;2.58;;;2.38;;
16430;SDS011;8325;49.284;7.238;2023-06-19T09:00:47;2.70;;;2.38;;
16430;SDS011;8325;49.284;7.238;2023-06-19T09:05:08;4.85;;;2.67;;
16430;SDS011;8325;49.284;7.238;2023-06-19T09:09:26;2.70;;;2.50;;
16430;SDS011;8325;49.284;7.238;2023-06-19T09:13:38;2.70;;;2.50;;
16430;SDS011;8325;49.284;7.238;2023-06-19T09:18:01;3.72;;;2.40;;
16430;SDS011;8325;49.284;7.238;2023-06-19T09:22:17;3.97;;;2.88;;
16430;SDS011;8325;49.284;7.238;2023-06-19T09:26:32;2.67;;;2.47;;
16430;SDS011;8325;49.284;7.238;2023-06-19T09:30:51;2.90;;;2.70;;
16430;SDS011;8325;49.284;7.238;2023-06-19T09:35:10;4.38;;;2.67;;
16430;SDS011;8325;49.284;7.238;2023-06-19T09:39:22;3.15;;;2.45;;
16430;SDS011;8325;49.284;7.238;2023-06-19T09:43:41;4.47;;;2.78;;
16430;SDS011;8325;49.284;7.238;2023-06-19T09:47:55;3.13;;;2.85;;
16430;SDS011;8325;49.284;7.238;2023-06-19T09:52:20;3.53;;;2.88;;
16430;SDS011;8325;49.284;7.238;2023-06-19T09:56:33;2.95;;;2.75;;
16430;SDS011;8325;49.284;7.238;2023-06-19T10:00:45;3.15;;;2.85;;
16430;SDS011;8325;49.284;7.238;2023-06-19T10:04:58;3.42;;;3.13;;
16430;SDS011;8325;49.284;7.238;2023-06-19T10:09:11;3.85;;;3.25;;
16430;SDS011;8325;49.284;7.238;2023-06-19T10:13:30;4.80;;;3.20;;
16430;SDS011;8325;49.284;7.238;2023-06-19T10:22:18;3.58;;;3.28;;
16430;SDS011;8325;49.284;7.238;2023-06-19T10:26:35;4.38;;;3.30;;
16430;SDS011;8325;49.284;7.238;2023-06-19T10:30:53;3.72;;;3.42;;
16430;SDS011;8325;49.284;7.238;2023-06-19T10:35:12;3.42;;;3.17;;
16430;SDS011;8325;49.284;7.238;2023-06-19T10:39:25;3.70;;;3.38;;
16430;SDS011;8325;49.284;7.238;2023-06-19T10:43:36;3.70;;;3.38;;
16430;SDS011;8325;49.284;7.238;2023-06-19T10:47:48;3.38;;;3.15;;
16430;SDS011;8325;49.284;7.238;2023-06-19T10:52:00;3.42;;;3.20;;
16430;SDS011;8325;49.284;7.238;2023-06-19T10:56:11;4.47;;;3.58;;
16430;SDS011;8325;49.284;7.238;2023-06-19T11:00:24;4.25;;;3.72;;
16430;SDS011;8325;49.284;7.238;2023-06-19T11:04:40;3.30;;;3.00;;
16430;SDS011;8325;49.284;7.238;2023-06-19T11:08:51;3.70;;;3.40;;
16430;SDS011;8325;49.284;7.238;2023-06-19T11:13:06;3.63;;;3.33;;
16430;SDS011;8325;49.284;7.238;2023-06-19T11:17:17;4.47;;;3.35;;
16430;SDS011;8325;49.284;7.238;2023-06-19T11:21:32;5.20;;;3.60;;
16430;SDS011;8325;49.284;7.238;2023-06-19T11:25:49;3.55;;;3.25;;
16430;SDS011;8325;49.284;7.238;2023-06-19T11:30:00;4.15;;;3.20;;
16430;SDS011;8325;49.284;7.238;2023-06-19T11:34:15;3.72;;;3.42;;
16430;SDS011;8325;49.284;7.238;2023-06-19T11:38:29;3.60;;;3.30;;
16430;SDS011;8325;49.284;7.238;2023-06-19T11:42:45;4.00;;;3.63;;
16430;SDS011;8325;49.284;7.238;2023-06-19T11:46:57;3.78;;;3.47;;
16430;SDS011;8325;49.284;7.238;2023-06-19T11:51:10;4.03;;;3.72;;
16430;SDS011;8325;49.284;7.238;2023-06-19T11:55:21;4.07;;;3.78;;
16430;SDS011;8325;49.284;7.238;2023-06-19T11:59:33;4.07;;;3.72;;
16430;SDS011;8325;49.284;7.238;2023-06-19T12:03:45;3.95;;;3.55;;
16430;SDS011;8325;49.284;7.238;2023-06-19T12:07:56;3.97;;;3.67;;
16430;SDS011;8325;49.284;7.238;2023-06-19T12:12:08;4.22;;;3.83;;
16430;SDS011;8325;49.284;7.238;2023-06-19T12:16:20;4.93;;;3.70;;
16430;SDS011;8325;49.284;7.238;2023-06-19T12:20:32;5.18;;;4.18;;
16430;SDS011;8325;49.284;7.238;2023-06-19T12:24:44;3.90;;;3.50;;
16430;SDS011;8325;49.284;7.238;2023-06-19T12:28:55;5.15;;;3.83;;
16430;SDS011;8325;49.284;7.238;2023-06-19T12:33:07;3.97;;;3.67;;
16430;SDS011;8325;49.284;7.238;2023-06-19T12:37:19;5.35;;;3.60;;
16430;SDS011;8325;49.284;7.238;2023-06-19T12:41:31;3.92;;;3.63;;
16430;SDS011;8325;49.284;7.238;2023-06-19T12:45:43;4.25;;;3.67;;
16430;SDS011;8325;49.284;7.238;2023-06-19T12:49:54;4.13;;;3.60;;
16430;SDS011;8325;49.284;7.238;2023-06-19T12:54:06;7.72;;;3.72;;
16430;SDS011;8325;49.284;7.238;2023-06-19T12:58:18;4.40;;;3.60;;
16430;SDS011;8325;49.284;7.238;2023-06-19T13:02:29;4.57;;;3.80;;
16430;SDS011;8325;49.284;7.238;2023-06-19T13:06:41;3.83;;;3.53;;
16430;SDS011;8325;49.284;7.238;2023-06-19T13:10:53;4.47;;;3.63;;
16430;SDS011;8325;49.284;7.238;2023-06-19T13:15:04;4.00;;;3.67;;
16430;SDS011;8325;49.284;7.238;2023-06-19T13:19:16;4.47;;;4.07;;
16430;SDS011;8325;49.284;7.238;2023-06-19T13:23:28;3.83;;;3.53;;
16430;SDS011;8325;49.284;7.238;2023-06-19T13:27:42;4.15;;;3.75;;
16430;SDS011;8325;49.284;7.238;2023-06-19T13:31:53;4.10;;;3.70;;
16430;SDS011;8325;49.284;7.238;2023-06-19T13:36:05;3.75;;;3.45;;
16430;SDS011;8325;49.284;7.238;2023-06-19T13:40:17;4.03;;;3.72;;
16430;SDS011;8325;49.284;7.238;2023-06-19T13:44:28;4.35;;;3.95;;
16430;SDS011;8325;49.284;7.238;2023-06-19T13:48:40;5.25;;;4.45;;
16430;SDS011;8325;49.284;7.238;2023-06-19T13:52:51;4.43;;;4.03;;
16430;SDS011;8325;49.284;7.238;2023-06-19T13:57:03;5.75;;;5.25;;
16430;SDS011;8325;49.284;7.238;2023-06-19T14:01:15;5.50;;;4.55;;
16430;SDS011;8325;49.284;7.238;2023-06-19T14:05:27;4.50;;;4.10;;
16430;SDS011;8325;49.284;7.238;2023-06-19T14:09:39;3.97;;;3.60;;
16430;SDS011;8325;49.284;7.238;2023-06-19T14:13:50;4.68;;;4.22;;
16430;SDS011;8325;49.284;7.238;2023-06-19T14:18:02;4.38;;;3.97;;
16430;SDS011;8325;49.284;7.238;2023-06-19T14:22:14;5.05;;;4.10;;
16430;SDS011;8325;49.284;7.238;2023-06-19T14:26:25;4.18;;;3.85;;
16430;SDS011;8325;49.284;7.238;2023-06-19T14:30:37;4.72;;;4.32;;
16430;SDS011;8325;49.284;7.238;2023-06-19T14:34:48;4.35;;;3.95;;
16430;SDS011;8325;49.284;7.238;2023-06-19T14:39:00;4.60;;;4.20;;
16430;SDS011;8325;49.284;7.238;2023-06-19T14:43:12;4.65;;;3.70;;
16430;SDS011;8325;49.284;7.238;2023-06-19T14:47:23;4.30;;;3.90;;
16430;SDS011;8325;49.284;7.238;2023-06-19T14:51:36;5.20;;;4.80;;
16430;SDS011;8325;49.284;7.238;2023-06-19T14:55:48;4.40;;;4.00;;
16430;SDS011;8325;49.284;7.238;2023-06-19T14:59:59;4.57;;;4.18;;
16430;SDS011;8325;49.284;7.238;2023-06-19T15:04:11;4.68;;;4.28;;
16430;SDS011;8325;49.284;7.238;2023-06-19T15:08:23;4.68;;;4.28;;
16430;SDS011;8325;49.284;7.238;2023-06-19T15:12:35;4.85;;;4.45;;
16430;SDS011;8325;49.284;7.238;2023-06-19T15:16:46;4.70;;;4.30;;
16430;SDS011;8325;49.284;7.238;2023-06-19T15:20:58;5.25;;;4.40;;
16430;SDS011;8325;49.284;7.238;2023-06-19T15:25:10;4.68;;;4.28;;
16430;SDS011;8325;49.284;7.238;2023-06-19T15:29:22;4.82;;;4.40;;
16430;SDS011;8325;49.284;7.238;2023-06-19T15:33:33;4.25;;;3.95;;
16430;SDS011;8325;49.284;7.238;2023-06-19T15:37:45;4.70;;;4.30;;
16430;SDS011;8325;49.284;7.238;2023-06-19T15:41:57;4.97;;;4.45;;
16430;SDS011;8325;49.284;7.238;2023-06-19T15:46:08;4.95;;;4.55;;
16430;SDS011;8325;49.284;7.238;2023-06-19T15:50:20;5.38;;;4.57;;
16430;SDS011;8325;49.284;7.238;2023-06-19T15:54:32;5.13;;;4.68;;
16430;SDS011;8325;49.284;7.238;2023-06-19T15:58:43;6.10;;;5.50;;
16430;SDS011;8325;49.284;7.238;2023-06-19T16:02:55;6.38;;;4.85;;
16430;SDS011;8325;49.284;7.238;2023-06-19T16:07:07;5.05;;;4.28;;
16430;SDS011;8325;49.284;7.238;2023-06-19T16:11:18;5.88;;;5.38;;
16430;SDS011;8325;49.284;7.238;2023-06-19T16:15:30;4.88;;;4.38;;
16430;SDS011;8325;49.284;7.238;2023-06-19T16:19:43;5.40;;;4.90;;
16430;SDS011;8325;49.284;7.238;2023-06-19T16:23:55;5.30;;;4.78;;
16430;SDS011;8325;49.284;7.238;2023-06-19T16:28:07;4.68;;;4.28;;
16430;SDS011;8325;49.284;7.238;2023-06-19T16:32:19;5.07;;;4.65;;
16430;SDS011;8325;49.284;7.238;2023-06-19T16:36:31;4.60;;;4.18;;
16430;SDS011;8325;49.284;7.238;2023-06-19T16:40:43;5.28;;;4.53;;
16430;SDS011;8325;49.284;7.238;2023-06-19T16:44:55;5.13;;;4.63;;
16430;SDS011;8325;49.284;7.238;2023-06-19T16:49:06;5.10;;;4.60;;
16430;SDS011;8325;49.284;7.238;2023-06-19T16:53:18;4.95;;;4.55;;
16430;SDS011;8325;49.284;7.238;2023-06-19T16:57:29;4.97;;;4.57;;
16430;SDS011;8325;49.284;7.238;2023-06-19T17:01:43;5.00;;;4.60;;
16430;SDS011;8325;49.284;7.238;2023-06-19T17:05:56;5.15;;;4.60;;
16430;SDS011;8325;49.284;7.238;2023-06-19T17:10:08;4.75;;;4.28;;
16430;SDS011;8325;49.284;7.238;2023-06-19T17:14:23;4.97;;;4.47;;
16430;SDS011;8325;49.284;7.238;2023-06-19T17:18:35;5.40;;;4.90;;
16430;SDS011;8325;49.284;7.238;2023-06-19T17:22:47;5.68;;;5.18;;
16430;SDS011;8325;49.284;7.238;2023-06-19T17:26:58;4.82;;;4.32;;
16430;SDS011;8325;49.284;7.238;2023-06-19T17:31:10;5.10;;;4.60;;
16430;SDS011;8325;49.284;7.238;2023-06-19T17:35:22;5.35;;;4.85;;
16430;SDS011;8325;49.284;7.238;2023-06-19T17:39:35;5.25;;;4.80;;
16430;SDS011;8325;49.284;7.238;2023-06-19T17:43:48;5.38;;;4.88;;
16430;SDS011;8325;49.284;7.238;2023-06-19T17:48:00;5.00;;;4.60;;
16430;SDS011;8325;49.284;7.238;2023-06-19T17:52:17;4.88;;;4.47;;
16430;SDS011;8325;49.284;7.238;2023-06-19T17:56:28;5.05;;;4.65;;
16430;SDS011;8325;49.284;7.238;2023-06-19T18:00:40;5.32;;;4.78;;
16430;SDS011;8325;49.284;7.238;2023-06-19T18:04:52;5.43;;;4.93;;
16430;SDS011;8325;49.284;7.238;2023-06-19T18:09:03;5.10;;;4.70;;
16430;SDS011;8325;49.284;7.238;2023-06-19T18:13:17;5.78;;;5.28;;
16430;SDS011;8325;49.284;7.238;2023-06-19T18:17:28;5.60;;;5.10;;
16430;SDS011;8325;49.284;7.238;2023-06-19T18:21:40;5.32;;;4.82;;
16430;SDS011;8325;49.284;7.238;2023-06-19T18:25:52;6.68;;;5.75;;
16430;SDS011;8325;49.284;7.238;2023-06-19T18:30:03;5.90;;;5.20;;
16430;SDS011;8325;49.284;7.238;2023-06-19T18:34:16;7.55;;;5.30;;
16430;SDS011;8325;49.284;7.238;2023-06-19T18:38:27;5.40;;;4.90;;
16430;SDS011;8325;49.284;7.238;2023-06-19T18:42:39;6.40;;;5.70;;
16430;SDS011;8325;49.284;7.238;2023-06-19T18:46:54;6.50;;;5.07;;
16430;SDS011;8325;49.284;7.238;2023-06-19T18:51:06;6.00;;;5.35;;
16430;SDS011;8325;49.284;7.238;2023-06-19T18:55:18;5.85;;;5.13;;
16430;SDS011;8325;49.284;7.238;2023-06-19T18:59:30;5.45;;;5.00;;
16430;SDS011;8325;49.284;7.238;2023-06-19T19:03:41;5.22;;;4.82;;
16430;SDS011;8325;49.284;7.238;2023-06-19T19:07:54;5.00;;;4.60;;
16430;SDS011;8325;49.284;7.238;2023-06-19T19:12:06;6.00;;;5.40;;
16430;SDS011;8325;49.284;7.238;2023-06-19T19:16:22;5.57;;;5.07;;
16430;SDS011;8325;49.284;7.238;2023-06-19T19:20:37;5.90;;;4.95;;
16430;SDS011;8325;49.284;7.238;2023-06-19T19:24:48;5.68;;;5.18;;
16430;SDS011;8325;49.284;7.238;2023-06-19T19:29:00;5.97;;;5.47;;
16430;SDS011;8325;49.284;7.238;2023-06-19T19:33:11;6.43;;;5.65;;
16430;SDS011;8325;49.284;7.238;2023-06-19T19:37:24;6.15;;;5.55;;
16430;SDS011;8325;49.284;7.238;2023-06-19T19:41:39;6.25;;;5.65;;
16430;SDS011;8325;49.284;7.238;2023-06-19T19:45:52;6.38;;;5.78;;
16430;SDS011;8325;49.284;7.238;2023-06-19T19:50:04;7.38;;;5.75;;
16430;SDS011;8325;49.284;7.238;2023-06-19T19:54:16;7.45;;;5.85;;
16430;SDS011;8325;49.284;7.238;2023-06-19T19:58:28;6.68;;;6.07;;
16430;SDS011;8325;49.284;7.238;2023-06-19T20:02:41;6.63;;;6.00;;
16430;SDS011;8325;49.284;7.238;2023-06-19T20:06:52;6.55;;;5.90;;
16430;SDS011;8325;49.284;7.238;2023-06-19T20:11:04;8.30;;;6.32;;
16430;SDS011;8325;49.284;7.238;2023-06-19T20:15:16;6.75;;;6.15;;
16430;SDS011;8325;49.284;7.238;2023-06-19T20:19:27;8.65;;;6.40;;
16430;SDS011;8325;49.284;7.238;2023-06-19T20:23:39;6.60;;;6.00;;
16430;SDS011;8325;49.284;7.238;2023-06-19T20:27:50;7.07;;;6.38;;
16430;SDS011;8325;49.284;7.238;2023-06-19T20:32:17;7.03;;;6.32;;
16430;SDS011;8325;49.284;7.238;2023-06-19T20:36:29;7.35;;;6.63;;
16430;SDS011;8325;49.284;7.238;2023-06-19T20:40:41;6.63;;;6.03;;
16430;SDS011;8325;49.284;7.238;2023-06-19T20:44:54;7.45;;;6.68;;
16430;SDS011;8325;49.284;7.238;2023-06-19T20:49:06;6.68;;;6.07;;
16430;SDS011;8325;49.284;7.238;2023-06-19T20:53:17;7.10;;;6.40;;
16430;SDS011;8325;49.284;7.238;2023-06-19T20:57:29;7.72;;;6.68;;
16430;SDS011;8325;49.284;7.238;2023-06-19T21:01:41;8.20;;;6.47;;
16430;SDS011;8325;49.284;7.238;2023-06-19T21:05:52;7.45;;;6.57;;
16430;SDS011;8325;49.284;7.238;2023-06-19T21:10:07;7.53;;;6.82;;
16430;SDS011;8325;49.284;7.238;2023-06-19T21:14:20;7.40;;;6.78;;
16430;SDS011;8325;49.284;7.238;2023-06-19T21:18:32;7.25;;;6.57;;
16430;SDS011;8325;49.284;7.238;2023-06-19T21:22:44;7.38;;;6.68;;
16430;SDS011;8325;49.284;7.238;2023-06-19T21:26:55;7.68;;;6.97;;
